createdAt,value
2023-02-20T00:00:57.751Z,2.08
2023-02-20T00:03:25.757Z,2.15
2023-02-20T00:05:53.411Z,1.95
2023-02-20T00:08:22.943Z,2.35
2023-02-20T00:10:50.870Z,1.65
2023-02-20T00:13:18.919Z,1.95
2023-02-20T00:15:46.587Z,2.38
2023-02-20T00:18:15.972Z,2.47
2023-02-20T00:20:44.243Z,2.15
2023-02-20T00:23:12.317Z,2.03
2023-02-20T00:25:40.492Z,2.30
2023-02-20T00:28:08.942Z,2.90
2023-02-20T00:30:36.785Z,2.30
2023-02-20T00:33:04.983Z,2.15
2023-02-20T00:35:34.321Z,2.20
2023-02-20T00:38:02.739Z,2.15
2023-02-20T00:40:30.998Z,2.20
2023-02-20T00:42:58.583Z,2.58
2023-02-20T00:45:28.861Z,2.38
2023-02-20T00:47:57.130Z,1.88
2023-02-20T00:50:26.090Z,2.15
2023-02-20T00:52:55.628Z,2.00
2023-02-20T00:55:24.037Z,2.42
2023-02-20T00:57:52.045Z,2.20
2023-02-20T01:00:23.485Z,2.03
2023-02-20T01:02:51.464Z,2.50
2023-02-20T01:05:20.263Z,2.00
2023-02-20T01:07:48.371Z,2.53
2023-02-20T01:10:17.533Z,2.38
2023-02-20T01:12:45.142Z,2.08
2023-02-20T01:15:16.174Z,2.10
2023-02-20T01:17:43.830Z,2.38
2023-02-20T01:20:12.376Z,2.70
2023-02-20T01:22:41.071Z,2.03
2023-02-20T01:25:11.320Z,2.50
2023-02-20T01:27:40.274Z,2.00
2023-02-20T01:30:09.786Z,2.10
2023-02-20T01:32:37.517Z,1.85
2023-02-20T01:35:06.191Z,2.30
2023-02-20T01:37:35.109Z,2.10
2023-02-20T01:40:03.161Z,2.20
2023-02-20T01:42:33.279Z,2.70
2023-02-20T01:47:56.811Z,2.33
2023-02-20T01:50:28.395Z,2.40
2023-02-20T01:53:01.906Z,2.33
2023-02-20T01:55:32.657Z,2.45
2023-02-20T01:58:06.275Z,2.30
2023-02-20T02:00:34.520Z,2.92
2023-02-20T02:03:06.646Z,2.88
2023-02-20T02:05:36.342Z,2.35
2023-02-20T02:08:07.288Z,2.78
2023-02-20T02:10:40.851Z,2.40
2023-02-20T02:13:08.852Z,2.22
2023-02-20T02:15:40.276Z,3.72
2023-02-20T02:18:34.615Z,2.30
2023-02-20T02:21:28.623Z,2.20
2023-02-20T02:24:35.652Z,3.28
2023-02-20T02:27:35.816Z,2.30
2023-02-20T02:30:32.639Z,2.78
2023-02-20T02:33:19.431Z,2.05
2023-02-20T02:36:26.953Z,2.85
2023-02-20T02:39:02.664Z,2.45
2023-02-20T02:41:38.447Z,2.20
2023-02-20T02:44:13.762Z,2.75
2023-02-20T02:46:45.010Z,2.20
2023-02-20T02:49:18.899Z,2.75
2023-02-20T02:51:48.927Z,3.53
2023-02-20T02:54:20.779Z,2.28
2023-02-20T02:56:49.791Z,2.45
2023-02-20T02:59:20.822Z,2.70
2023-02-20T03:01:54.411Z,2.38
2023-02-20T03:04:30.244Z,2.72
2023-02-20T03:07:04.045Z,2.40
2023-02-20T03:09:34.032Z,2.90
2023-02-20T03:12:03.906Z,2.60
2023-02-20T03:14:55.846Z,2.80
2023-02-20T03:17:30.528Z,4.10
2023-02-20T03:20:00.784Z,2.63
2023-02-20T03:25:09.454Z,2.03
2023-02-20T03:27:44.235Z,2.55
2023-02-20T03:30:20.116Z,2.30
2023-02-20T03:33:10.273Z,2.47
2023-02-20T03:35:58.932Z,2.40
2023-02-20T03:38:48.021Z,2.28
2023-02-20T03:41:34.746Z,3.10
2023-02-20T03:44:07.496Z,2.20
2023-02-20T03:46:39.114Z,2.60
2023-02-20T03:49:12.459Z,2.38
2023-02-20T03:51:43.659Z,1.98
2023-02-20T03:54:21.238Z,2.10
2023-02-20T03:56:54.200Z,5.10
2023-02-20T03:59:26.909Z,1.55
2023-02-20T04:01:58.911Z,2.05
2023-02-20T04:04:34.159Z,2.63
2023-02-20T04:07:07.384Z,2.15
2023-02-20T04:09:39.730Z,2.20
2023-02-20T04:12:13.016Z,2.30
2023-02-20T04:14:45.289Z,2.22
2023-02-20T04:17:17.318Z,2.22
2023-02-20T04:19:45.089Z,2.00
2023-02-20T04:22:18.776Z,1.98
2023-02-20T04:24:53.265Z,2.50
2023-02-20T04:27:21.528Z,3.22
2023-02-20T04:29:54.248Z,2.50
2023-02-20T04:32:22.134Z,2.40
2023-02-20T04:34:50.508Z,2.55
2023-02-20T04:37:20.392Z,2.33
2023-02-20T04:39:52.831Z,2.08
2023-02-20T04:42:20.783Z,2.97
2023-02-20T04:44:49.791Z,2.30
2023-02-20T04:47:18.933Z,2.53
2023-02-20T04:49:46.520Z,2.58
2023-02-20T04:52:18.852Z,2.03
2023-02-20T04:54:47.078Z,2.53
2023-02-20T04:57:17.797Z,2.53
2023-02-20T04:59:45.585Z,3.22
2023-02-20T05:02:13.175Z,2.42
2023-02-20T05:04:41.456Z,2.47
2023-02-20T05:07:09.069Z,2.80
2023-02-20T05:09:36.707Z,2.30
2023-02-20T05:12:04.846Z,2.70
2023-02-20T05:14:34.100Z,3.22
2023-02-20T05:17:01.689Z,2.72
2023-02-20T05:19:29.291Z,2.15
2023-02-20T05:22:14.570Z,2.75
2023-02-20T05:24:43.858Z,3.70
2023-02-20T05:27:11.511Z,3.50
2023-02-20T05:29:40.399Z,3.97
2023-02-20T05:32:07.898Z,3.20
2023-02-20T05:34:35.651Z,3.17
2023-02-20T05:37:03.210Z,2.50
2023-02-20T05:39:30.835Z,3.15
2023-02-20T05:41:58.403Z,3.25
2023-02-20T05:44:26.000Z,2.58
2023-02-20T05:46:55.488Z,2.35
2023-02-20T05:49:23.585Z,2.30
2023-02-20T05:51:51.573Z,2.78
2023-02-20T05:54:19.942Z,2.50
2023-02-20T05:56:48.515Z,2.63
2023-02-20T05:59:19.335Z,2.70
2023-02-20T06:01:47.623Z,3.20
2023-02-20T06:04:16.576Z,2.97
2023-02-20T06:06:44.940Z,3.15
2023-02-20T06:09:16.484Z,2.40
2023-02-20T06:11:50.249Z,3.13
2023-02-20T06:14:18.824Z,3.25
2023-02-20T06:16:46.831Z,3.03
2023-02-20T06:19:22.193Z,3.38
2023-02-20T06:21:50.539Z,3.10
2023-02-20T06:24:18.745Z,2.40
2023-02-20T06:26:46.951Z,2.90
2023-02-20T06:29:16.893Z,3.20
2023-02-20T06:31:44.849Z,3.28
2023-02-20T06:34:12.693Z,2.95
2023-02-20T06:36:42.911Z,2.38
2023-02-20T06:39:12.417Z,3.65
2023-02-20T06:41:40.749Z,3.30
2023-02-20T06:44:08.548Z,3.72
2023-02-20T06:46:36.220Z,3.83
2023-02-20T06:49:03.870Z,4.15
2023-02-20T06:51:34.478Z,3.85
2023-02-20T06:54:04.797Z,3.88
2023-02-20T06:56:34.103Z,3.80
2023-02-20T06:59:02.636Z,3.58
2023-02-20T07:01:32.836Z,3.25
2023-02-20T07:04:02.681Z,3.78
2023-02-20T07:06:30.489Z,4.30
2023-02-20T07:08:58.143Z,5.53
2023-02-20T07:11:27.076Z,3.90
2023-02-20T07:13:54.634Z,2.85
2023-02-20T07:16:22.429Z,3.15
2023-02-20T07:18:50.048Z,2.50
2023-02-20T07:21:17.610Z,2.20
2023-02-20T07:23:45.535Z,2.88
2023-02-20T07:26:19.490Z,2.40
2023-02-20T07:28:48.418Z,2.33
2023-02-20T07:31:16.112Z,2.42
2023-02-20T07:33:43.931Z,2.60
2023-02-20T07:36:12.268Z,2.15
2023-02-20T07:38:40.310Z,1.85
2023-02-20T07:41:08.762Z,2.17
2023-02-20T07:43:36.562Z,5.40
2023-02-20T07:46:05.761Z,2.78
2023-02-20T07:48:34.545Z,2.25
2023-02-20T07:51:02.135Z,2.17
2023-02-20T07:53:29.742Z,2.20
2023-02-20T07:55:57.301Z,2.38
2023-02-20T07:58:25.105Z,3.22
2023-02-20T08:00:54.018Z,2.80
2023-02-20T08:03:22.967Z,2.67
2023-02-20T08:05:50.687Z,2.45
2023-02-20T08:08:18.345Z,2.47
2023-02-20T08:10:46.091Z,5.10
2023-02-20T08:13:13.678Z,2.50
2023-02-20T08:15:41.810Z,2.55
2023-02-20T08:18:18.728Z,2.88
2023-02-20T08:20:52.777Z,2.38
2023-02-20T08:23:22.205Z,2.38
2023-02-20T08:25:49.813Z,2.30
2023-02-20T08:28:17.541Z,2.10
2023-02-20T08:30:45.155Z,2.30
2023-02-20T08:33:12.860Z,2.50
2023-02-20T08:35:40.719Z,2.40
2023-02-20T08:38:25.047Z,2.15
2023-02-20T08:40:52.751Z,2.30
2023-02-20T08:43:20.363Z,2.38
2023-02-20T08:45:48.193Z,2.25
2023-02-20T08:48:15.926Z,1.98
2023-02-20T08:50:43.747Z,2.00
2023-02-20T08:53:12.647Z,4.15
2023-02-20T08:55:40.270Z,2.30
2023-02-20T08:58:07.983Z,2.22
2023-02-20T09:00:35.598Z,2.10
2023-02-20T09:03:07.197Z,2.03
2023-02-20T09:05:36.957Z,1.70
2023-02-20T09:08:06.183Z,2.22
2023-02-20T09:10:35.389Z,2.10
2023-02-20T09:13:03.760Z,2.25
2023-02-20T09:15:35.810Z,1.65
2023-02-20T09:18:03.664Z,1.55
2023-02-20T09:20:31.331Z,1.85
2023-02-20T09:23:00.931Z,1.52
2023-02-20T09:25:28.630Z,1.60
2023-02-20T09:27:57.517Z,1.83
2023-02-20T09:30:25.524Z,1.90
2023-02-20T09:32:54.348Z,1.65
2023-02-20T09:35:24.467Z,1.50
2023-02-20T09:37:52.520Z,1.33
2023-02-20T09:40:23.723Z,2.05
2023-02-20T09:43:07.496Z,1.70
2023-02-20T09:45:38.485Z,1.55
2023-02-20T09:48:15.913Z,1.80
2023-02-20T09:50:47.060Z,1.63
2023-02-20T09:53:23.517Z,1.13
2023-02-20T09:55:51.913Z,1.20
2023-02-20T09:58:28.922Z,1.30
2023-02-20T10:01:01.914Z,1.70
2023-02-20T10:03:37.272Z,1.35
2023-02-20T10:06:16.349Z,1.30
2023-02-20T10:08:44.160Z,1.70
2023-02-20T10:11:18.270Z,1.15
2023-02-20T10:13:59.428Z,1.23
2023-02-20T10:16:36.135Z,1.30
2023-02-20T10:19:15.401Z,1.40
2023-02-20T10:21:53.873Z,1.35
2023-02-20T10:24:39.150Z,1.77
2023-02-20T10:27:31.363Z,1.45
2023-02-20T10:30:02.557Z,1.60
2023-02-20T10:32:37.246Z,1.58
2023-02-20T10:35:07.832Z,1.60
2023-02-20T10:37:47.493Z,1.40
2023-02-20T10:40:24.359Z,1.40
2023-02-20T10:42:59.293Z,1.30
2023-02-20T10:45:38.889Z,1.33
2023-02-20T10:48:09.167Z,1.85
2023-02-20T10:50:42.580Z,1.52
2023-02-20T10:55:47.045Z,1.63
2023-02-20T10:58:20.552Z,1.80
2023-02-20T11:00:54.334Z,2.58
2023-02-20T11:03:27.442Z,1.45
2023-02-20T11:05:58.069Z,2.72
2023-02-20T11:08:25.754Z,2.65
2023-02-20T11:10:57.368Z,2.00
2023-02-20T11:13:26.253Z,1.70
2023-02-20T11:15:58.409Z,1.95
2023-02-20T11:18:32.438Z,1.60
2023-02-20T11:21:00.109Z,2.05
2023-02-20T11:23:40.353Z,2.08
2023-02-20T11:26:31.736Z,1.77
2023-02-20T11:29:04.105Z,1.70
2023-02-20T11:31:35.174Z,1.50
2023-02-20T11:34:05.503Z,1.80
2023-02-20T11:36:38.249Z,1.85
2023-02-20T11:39:20.237Z,2.42
2023-02-20T11:41:50.182Z,1.60
2023-02-20T11:44:25.962Z,1.52
2023-02-20T11:47:22.523Z,1.67
2023-02-20T11:49:51.139Z,1.50
2023-02-20T11:52:21.289Z,1.88
2023-02-20T11:55:09.230Z,2.00
2023-02-20T11:57:44.648Z,1.70
2023-02-20T12:00:17.349Z,1.83
2023-02-20T12:02:55.780Z,1.83
2023-02-20T12:05:38.890Z,1.73
2023-02-20T12:08:24.710Z,1.80
2023-02-20T12:10:55.708Z,1.95
2023-02-20T12:13:24.042Z,1.70
2023-02-20T12:16:00.586Z,1.63
2023-02-20T12:18:41.490Z,1.73
2023-02-20T12:21:17.015Z,1.52
2023-02-20T12:23:55.928Z,2.25
2023-02-20T12:26:38.386Z,2.75
2023-02-20T12:29:17.237Z,1.58
2023-02-20T12:31:56.021Z,1.60
2023-02-20T12:34:38.009Z,1.55
2023-02-20T12:37:13.026Z,1.73
2023-02-20T12:39:53.631Z,1.52
2023-02-20T12:42:30.812Z,1.70
2023-02-20T12:45:16.209Z,1.60
2023-02-20T12:47:46.344Z,1.60
2023-02-20T12:50:27.042Z,2.03
2023-02-20T12:53:15.380Z,1.30
2023-02-20T12:55:52.094Z,1.73
2023-02-20T12:58:33.088Z,1.50
2023-02-20T13:01:02.481Z,1.63
2023-02-20T13:03:42.247Z,1.58
2023-02-20T13:06:14.707Z,1.52
2023-02-20T13:08:51.120Z,1.50
2023-02-20T13:11:23.349Z,1.50
2023-02-20T13:14:02.572Z,1.38
2023-02-20T13:16:35.376Z,0.95
2023-02-20T13:19:07.478Z,1.35
2023-02-20T13:21:36.549Z,1.30
2023-02-20T13:24:30.242Z,1.60
2023-02-20T13:26:58.975Z,1.42
2023-02-20T13:29:27.987Z,1.58
2023-02-20T13:31:57.507Z,1.55
2023-02-20T13:34:36.406Z,1.58
2023-02-20T13:37:05.607Z,1.55
2023-02-20T13:39:42.938Z,1.42
2023-02-20T13:42:34.547Z,1.20
2023-02-20T13:45:02.178Z,2.25
2023-02-20T13:47:34.435Z,1.80
2023-02-20T13:50:02.196Z,2.05
2023-02-20T13:52:38.846Z,2.60
2023-02-20T13:55:17.772Z,2.03
2023-02-20T13:57:47.958Z,5.63
2023-02-20T14:00:30.575Z,1.67
2023-02-20T14:02:58.550Z,1.98
2023-02-20T14:05:30.427Z,1.98
2023-02-20T14:08:00.289Z,2.53
2023-02-20T14:10:31.207Z,2.08
2023-02-20T14:13:02.420Z,2.22
2023-02-20T14:15:33.178Z,1.90
2023-02-20T14:18:00.987Z,1.70
2023-02-20T14:20:35.441Z,2.08
2023-02-20T14:26:01.479Z,2.15
2023-02-20T14:28:30.333Z,1.70
2023-02-20T14:31:06.049Z,2.13
2023-02-20T14:33:34.529Z,2.50
2023-02-20T14:36:21.384Z,2.50
2023-02-20T14:39:01.026Z,1.65
2023-02-20T14:41:31.776Z,1.73
2023-02-20T14:44:01.525Z,1.92
2023-02-20T14:46:31.528Z,1.77
2023-02-20T14:49:08.824Z,2.00
2023-02-20T14:51:37.416Z,1.50
2023-02-20T14:54:20.082Z,1.50
2023-02-20T14:56:50.757Z,1.65
2023-02-20T14:59:30.677Z,1.90
2023-02-20T15:02:00.961Z,1.67
2023-02-20T15:04:29.064Z,1.48
2023-02-20T15:07:06.391Z,1.75
2023-02-20T15:09:38.273Z,1.58
2023-02-20T15:12:09.442Z,1.40
2023-02-20T15:14:43.421Z,1.83
2023-02-20T15:17:23.542Z,2.60
2023-02-20T15:19:52.192Z,1.80
2023-02-20T15:22:29.640Z,1.80
2023-02-20T15:25:13.948Z,1.83
2023-02-20T15:28:08.444Z,1.92
2023-02-20T15:30:37.924Z,1.63
2023-02-20T15:33:10.198Z,1.92
2023-02-20T15:35:37.780Z,1.73
2023-02-20T15:38:09.142Z,1.70
2023-02-20T15:40:36.771Z,1.70
2023-02-20T15:43:29.772Z,1.70
2023-02-20T15:46:00.213Z,2.15
2023-02-20T15:48:28.264Z,1.58
2023-02-20T15:50:56.387Z,1.52
2023-02-20T15:53:26.086Z,1.92
2023-02-20T15:55:54.900Z,1.27
2023-02-20T15:58:30.485Z,2.10
2023-02-20T16:01:00.820Z,1.50
2023-02-20T16:03:33.840Z,1.30
2023-02-20T16:06:06.920Z,1.20
2023-02-20T16:08:34.530Z,1.50
2023-02-20T16:11:02.423Z,1.55
2023-02-20T16:13:36.323Z,1.55
2023-02-20T16:16:23.264Z,1.40
2023-02-20T16:18:54.360Z,1.70
2023-02-20T16:21:23.990Z,1.55
2023-02-20T16:23:51.941Z,1.60
2023-02-20T16:26:21.779Z,1.42
2023-02-20T16:28:53.977Z,2.08
2023-02-20T16:31:21.696Z,2.03
2023-02-20T16:33:49.686Z,1.40
2023-02-20T16:36:24.640Z,1.77
2023-02-20T16:38:52.689Z,1.90
2023-02-20T16:41:20.262Z,3.30
2023-02-20T16:43:50.897Z,2.45
2023-02-20T16:46:29.476Z,2.47
2023-02-20T16:49:00.758Z,2.67
2023-02-20T16:51:29.625Z,1.55
2023-02-20T16:53:57.209Z,1.45
2023-02-20T16:56:25.048Z,1.80
2023-02-20T16:58:53.936Z,2.10
2023-02-20T17:01:23.033Z,2.80
2023-02-20T17:03:50.586Z,1.95
2023-02-20T17:06:20.330Z,1.92
2023-02-20T17:08:47.878Z,2.00
2023-02-20T17:11:15.950Z,2.33
2023-02-20T17:13:43.568Z,2.72
2023-02-20T17:16:14.815Z,3.80
2023-02-20T17:21:12.672Z,1.80
2023-02-20T17:23:40.445Z,1.60
2023-02-20T17:26:09.724Z,1.60
2023-02-20T17:28:37.337Z,2.03
2023-02-20T17:31:05.045Z,1.40
2023-02-20T17:33:35.129Z,1.70
2023-02-20T17:36:02.730Z,1.38
2023-02-20T17:38:30.327Z,2.65
2023-02-20T17:41:00.017Z,4.13
2023-02-20T17:43:27.586Z,4.57
2023-02-20T17:45:55.202Z,2.40
2023-02-20T17:48:22.835Z,3.95
2023-02-20T17:50:51.696Z,2.20
2023-02-20T17:53:19.343Z,8.95
2023-02-20T17:55:46.905Z,4.05
2023-02-20T17:58:14.514Z,2.50
2023-02-20T18:00:42.136Z,1.60
2023-02-20T18:03:09.827Z,2.13
2023-02-20T18:05:37.406Z,2.53
2023-02-20T18:08:06.457Z,2.05
2023-02-20T18:10:34.054Z,2.83
2023-02-20T18:13:04.389Z,2.25
2023-02-20T18:15:32.309Z,2.13
2023-02-20T18:18:00.304Z,2.80
2023-02-20T18:20:28.042Z,2.55
2023-02-20T18:22:56.156Z,2.10
2023-02-20T18:25:38.077Z,2.17
2023-02-20T18:28:07.911Z,2.67
2023-02-20T18:30:35.682Z,2.80
2023-02-20T18:33:03.281Z,1.85
2023-02-20T18:35:30.880Z,2.47
2023-02-20T18:37:58.942Z,2.15
2023-02-20T18:40:28.087Z,2.20
2023-02-20T18:42:56.066Z,2.05
2023-02-20T18:45:24.698Z,1.75
2023-02-20T18:47:53.086Z,2.40
2023-02-20T18:50:21.981Z,2.03
2023-02-20T18:52:50.264Z,1.90
2023-02-20T18:55:19.051Z,2.50
2023-02-20T18:57:49.150Z,2.80
2023-02-20T19:00:19.046Z,3.53
2023-02-20T19:02:46.977Z,5.82
2023-02-20T19:05:14.673Z,3.78
2023-02-20T19:07:43.497Z,3.78
2023-02-20T19:10:12.176Z,3.30
2023-02-20T19:12:40.170Z,2.35
2023-02-20T19:15:09.694Z,5.63
2023-02-20T19:17:38.761Z,4.25
2023-02-20T19:20:09.511Z,5.78
2023-02-20T19:22:37.082Z,2.70
2023-02-20T19:25:04.752Z,2.20
2023-02-20T19:27:32.427Z,1.70
2023-02-20T19:29:59.935Z,5.57
2023-02-20T19:32:28.983Z,3.65
2023-02-20T19:34:56.612Z,3.67
2023-02-20T19:37:24.131Z,2.35
2023-02-20T19:39:51.717Z,1.95
2023-02-20T19:42:19.321Z,1.48
2023-02-20T19:44:46.894Z,1.70
2023-02-20T19:47:16.871Z,1.60
2023-02-20T19:49:47.181Z,1.65
2023-02-20T19:52:14.905Z,1.70
2023-02-20T19:54:45.491Z,1.50
2023-02-20T19:57:13.563Z,1.42
2023-02-20T19:59:43.161Z,2.85
2023-02-20T20:02:12.748Z,2.53
2023-02-20T20:04:40.688Z,1.90
2023-02-20T20:07:09.632Z,1.80
2023-02-20T20:09:38.348Z,2.55
2023-02-20T20:12:28.873Z,3.60
2023-02-20T20:14:57.472Z,3.15
2023-02-20T20:17:25.095Z,3.20
2023-02-20T20:19:58.807Z,4.25
2023-02-20T20:22:29.020Z,5.13
2023-02-20T20:24:56.644Z,4.68
2023-02-20T20:27:24.898Z,6.22
2023-02-20T20:29:52.679Z,5.60
2023-02-20T20:32:21.816Z,5.65
2023-02-20T20:34:53.132Z,6.32
2023-02-20T20:37:21.274Z,6.78
2023-02-20T20:39:51.197Z,6.85
2023-02-20T20:42:23.814Z,6.20
2023-02-20T20:44:51.985Z,7.55
2023-02-20T20:47:20.519Z,7.53
2023-02-20T20:49:48.192Z,8.05
2023-02-20T20:52:16.147Z,8.07
2023-02-20T20:54:45.031Z,6.95
2023-02-20T20:57:15.075Z,7.80
2023-02-20T20:59:42.873Z,7.93
2023-02-20T21:02:10.593Z,7.78
2023-02-20T21:04:39.749Z,7.20
2023-02-20T21:07:09.384Z,7.18
2023-02-20T21:09:36.946Z,6.82
2023-02-20T21:12:05.026Z,7.30
2023-02-20T21:14:37.862Z,7.22
2023-02-20T21:17:07.541Z,6.72
2023-02-20T21:19:35.280Z,8.10
2023-02-20T21:22:03.029Z,7.15
2023-02-20T21:24:30.594Z,6.47
2023-02-20T21:26:58.199Z,7.97
2023-02-20T21:29:25.810Z,7.32
2023-02-20T21:31:54.861Z,6.28
2023-02-20T21:34:22.387Z,6.28
2023-02-20T21:36:50.088Z,6.38
2023-02-20T21:39:17.737Z,7.60
2023-02-20T21:42:02.844Z,6.75
2023-02-20T21:44:30.456Z,6.65
2023-02-20T21:47:00.921Z,7.05
2023-02-20T21:49:30.227Z,7.47
2023-02-20T21:51:58.626Z,8.48
2023-02-20T21:54:28.199Z,7.80
2023-02-20T21:56:55.926Z,6.95
2023-02-20T21:59:22.830Z,8.65
2023-02-20T22:01:50.602Z,8.27
2023-02-20T22:04:19.227Z,8.05
2023-02-20T22:07:05.678Z,7.75
2023-02-20T22:09:51.005Z,7.50
2023-02-20T22:12:36.097Z,7.38
2023-02-20T22:15:21.852Z,8.05
2023-02-20T22:18:07.095Z,7.82
2023-02-20T22:20:53.759Z,7.75
2023-02-20T22:23:38.700Z,7.32
2023-02-20T22:26:24.159Z,7.82
2023-02-20T22:29:09.496Z,7.32
2023-02-20T22:31:54.915Z,7.38
2023-02-20T22:34:40.091Z,7.47
2023-02-20T22:37:26.604Z,8.07
2023-02-20T22:40:12.137Z,6.90
2023-02-20T22:42:57.329Z,7.20
2023-02-20T22:45:42.776Z,7.57
2023-02-20T22:48:28.115Z,7.13
2023-02-20T22:51:13.422Z,7.30
2023-02-20T22:54:00.248Z,7.05
2023-02-20T22:56:45.571Z,7.50
2023-02-20T22:59:31.006Z,6.05
2023-02-20T23:02:16.574Z,6.85
2023-02-20T23:05:01.743Z,6.97
2023-02-20T23:07:47.305Z,6.32
2023-02-20T23:10:34.984Z,6.85
2023-02-20T23:13:20.253Z,6.32
2023-02-20T23:16:05.986Z,6.53
2023-02-20T23:18:51.720Z,6.60
2023-02-20T23:21:37.117Z,6.80
2023-02-20T23:24:22.604Z,6.43
2023-02-20T23:27:11.085Z,6.80
2023-02-20T23:29:56.451Z,5.95
2023-02-20T23:32:41.718Z,6.55
2023-02-20T23:35:27.114Z,5.70
2023-02-20T23:38:12.400Z,6.63
2023-02-20T23:40:57.602Z,6.22
2023-02-20T23:43:46.098Z,6.63
2023-02-20T23:46:32.026Z,6.82
2023-02-20T23:49:17.321Z,7.38
2023-02-20T23:52:08.134Z,7.13
2023-02-20T23:54:59.996Z,7.38
2023-02-20T23:57:45.327Z,7.07
